sensor_id;sensor_type;location;lat;lon;timestamp;pressure;altitude;pressure_sealevel;temperature;humidity
29815;BME280;16708;50.426;7.664;2023-04-30T00:01:10;992.74;;;8.71;100.00
29815;BME280;16708;50.426;7.664;2023-04-30T00:06:04;992.68;;;8.67;100.00
29815;BME280;16708;50.426;7.664;2023-04-30T00:10:58;992.68;;;8.66;100.00
29815;BME280;16708;50.426;7.664;2023-04-30T00:15:52;992.71;;;8.63;100.00
29815;BME280;16708;50.426;7.664;2023-04-30T00:20:46;992.66;;;8.58;100.00
29815;BME280;16708;50.426;7.664;2023-04-30T00:25:39;992.64;;;8.57;100.00
29815;BME280;16708;50.426;7.664;2023-04-30T00:30:32;992.74;;;8.54;100.00
29815;BME280;16708;50.426;7.664;2023-04-30T00:35:25;992.77;;;8.52;100.00
29815;BME280;16708;50.426;7.664;2023-04-30T00:40:19;992.81;;;8.55;100.00
29815;BME280;16708;50.426;7.664;2023-04-30T00:45:14;992.73;;;8.53;100.00
29815;BME280;16708;50.426;7.664;2023-04-30T00:50:08;992.75;;;8.53;100.00
29815;BME280;16708;50.426;7.664;2023-04-30T00:55:02;992.80;;;8.54;100.00
29815;BME280;16708;50.426;7.664;2023-04-30T00:59:55;992.80;;;8.54;100.00
29815;BME280;16708;50.426;7.664;2023-04-30T01:04:48;992.83;;;8.56;100.00
29815;BME280;16708;50.426;7.664;2023-04-30T01:09:42;992.82;;;8.55;100.00
29815;BME280;16708;50.426;7.664;2023-04-30T01:14:36;992.79;;;8.58;100.00
29815;BME280;16708;50.426;7.664;2023-04-30T01:19:30;992.71;;;8.58;100.00
29815;BME280;16708;50.426;7.664;2023-04-30T01:29:17;992.78;;;8.63;100.00
29815;BME280;16708;50.426;7.664;2023-04-30T01:34:10;992.70;;;8.65;100.00
29815;BME280;16708;50.426;7.664;2023-04-30T01:53:46;992.64;;;8.65;100.00
29815;BME280;16708;50.426;7.664;2023-04-30T01:58:39;992.72;;;8.65;100.00
29815;BME280;16708;50.426;7.664;2023-04-30T02:03:33;992.73;;;8.64;100.00
29815;BME280;16708;50.426;7.664;2023-04-30T02:08:26;992.76;;;8.64;100.00
29815;BME280;16708;50.426;7.664;2023-04-30T02:13:20;992.78;;;8.64;100.00
29815;BME280;16708;50.426;7.664;2023-04-30T02:18:15;992.83;;;8.61;100.00
29815;BME280;16708;50.426;7.664;2023-04-30T02:23:08;992.83;;;8.53;100.00
29815;BME280;16708;50.426;7.664;2023-04-30T02:28:02;992.88;;;8.23;100.00
29815;BME280;16708;50.426;7.664;2023-04-30T02:32:56;992.88;;;7.93;100.00
29815;BME280;16708;50.426;7.664;2023-04-30T02:37:50;992.87;;;7.65;100.00
29815;BME280;16708;50.426;7.664;2023-04-30T02:42:43;992.95;;;7.35;100.00
29815;BME280;16708;50.426;7.664;2023-04-30T02:47:37;993.00;;;7.15;100.00
29815;BME280;16708;50.426;7.664;2023-04-30T02:52:30;992.93;;;6.96;100.00
29815;BME280;16708;50.426;7.664;2023-04-30T02:57:23;993.02;;;6.83;100.00
29815;BME280;16708;50.426;7.664;2023-04-30T03:02:16;993.09;;;6.87;100.00
29815;BME280;16708;50.426;7.664;2023-04-30T03:07:10;993.07;;;6.78;100.00
29815;BME280;16708;50.426;7.664;2023-04-30T03:12:05;993.17;;;6.64;100.00
29815;BME280;16708;50.426;7.664;2023-04-30T03:16:58;993.20;;;6.61;100.00
29815;BME280;16708;50.426;7.664;2023-04-30T03:21:52;993.07;;;6.42;100.00
29815;BME280;16708;50.426;7.664;2023-04-30T03:26:46;993.04;;;6.31;100.00
29815;BME280;16708;50.426;7.664;2023-04-30T03:31:40;993.06;;;6.25;100.00
29815;BME280;16708;50.426;7.664;2023-04-30T03:36:33;993.05;;;6.26;100.00
29815;BME280;16708;50.426;7.664;2023-04-30T03:41:27;992.98;;;6.15;100.00
29815;BME280;16708;50.426;7.664;2023-04-30T03:46:21;992.98;;;6.01;100.00
29815;BME280;16708;50.426;7.664;2023-04-30T03:51:16;992.93;;;5.90;100.00
29815;BME280;16708;50.426;7.664;2023-04-30T03:56:10;992.89;;;5.77;100.00
29815;BME280;16708;50.426;7.664;2023-04-30T04:01:04;992.89;;;5.70;100.00
29815;BME280;16708;50.426;7.664;2023-04-30T04:05:58;992.87;;;5.68;100.00
29815;BME280;16708;50.426;7.664;2023-04-30T04:10:51;992.90;;;5.65;100.00
29815;BME280;16708;50.426;7.664;2023-04-30T04:15:45;992.89;;;5.77;100.00
29815;BME280;16708;50.426;7.664;2023-04-30T04:20:40;992.91;;;5.98;100.00
29815;BME280;16708;50.426;7.664;2023-04-30T04:25:33;992.96;;;6.09;100.00
29815;BME280;16708;50.426;7.664;2023-04-30T04:30:27;993.01;;;6.26;100.00
29815;BME280;16708;50.426;7.664;2023-04-30T04:35:21;992.96;;;6.40;100.00
29815;BME280;16708;50.426;7.664;2023-04-30T04:40:14;992.87;;;6.66;100.00
29815;BME280;16708;50.426;7.664;2023-04-30T04:45:08;992.81;;;6.83;100.00
29815;BME280;16708;50.426;7.664;2023-04-30T04:50:02;992.89;;;6.95;100.00
29815;BME280;16708;50.426;7.664;2023-04-30T04:54:55;992.83;;;7.17;100.00
29815;BME280;16708;50.426;7.664;2023-04-30T04:59:47;992.85;;;7.42;100.00
29815;BME280;16708;50.426;7.664;2023-04-30T05:04:41;992.87;;;7.53;100.00
29815;BME280;16708;50.426;7.664;2023-04-30T05:09:35;992.80;;;7.76;100.00
29815;BME280;16708;50.426;7.664;2023-04-30T05:14:29;992.81;;;8.06;100.00
29815;BME280;16708;50.426;7.664;2023-04-30T05:19:23;992.81;;;8.46;100.00
29815;BME280;16708;50.426;7.664;2023-04-30T05:24:18;992.85;;;8.64;100.00
29815;BME280;16708;50.426;7.664;2023-04-30T05:29:12;992.82;;;8.69;100.00
29815;BME280;16708;50.426;7.664;2023-04-30T05:34:05;992.79;;;8.85;100.00
29815;BME280;16708;50.426;7.664;2023-04-30T05:38:59;992.91;;;8.97;100.00
29815;BME280;16708;50.426;7.664;2023-04-30T05:43:53;992.83;;;9.11;100.00
29815;BME280;16708;50.426;7.664;2023-04-30T05:48:47;992.87;;;9.23;100.00
29815;BME280;16708;50.426;7.664;2023-04-30T05:53:41;992.85;;;9.34;100.00
29815;BME280;16708;50.426;7.664;2023-04-30T05:58:35;992.78;;;9.52;100.00
29815;BME280;16708;50.426;7.664;2023-04-30T06:03:29;992.85;;;9.63;100.00
29815;BME280;16708;50.426;7.664;2023-04-30T06:08:23;992.86;;;9.80;100.00
29815;BME280;16708;50.426;7.664;2023-04-30T06:13:17;992.91;;;9.95;100.00
29815;BME280;16708;50.426;7.664;2023-04-30T06:18:11;992.77;;;10.06;100.00
29815;BME280;16708;50.426;7.664;2023-04-30T06:23:05;992.80;;;10.21;100.00
29815;BME280;16708;50.426;7.664;2023-04-30T06:27:59;992.82;;;10.34;100.00
29815;BME280;16708;50.426;7.664;2023-04-30T06:32:51;992.95;;;10.58;100.00
29815;BME280;16708;50.426;7.664;2023-04-30T06:37:45;992.87;;;10.78;100.00
29815;BME280;16708;50.426;7.664;2023-04-30T06:42:39;992.85;;;10.97;100.00
29815;BME280;16708;50.426;7.664;2023-04-30T06:47:33;992.88;;;11.07;100.00
29815;BME280;16708;50.426;7.664;2023-04-30T06:52:28;992.92;;;11.13;100.00
29815;BME280;16708;50.426;7.664;2023-04-30T06:57:22;992.89;;;11.24;100.00
29815;BME280;16708;50.426;7.664;2023-04-30T07:02:16;992.91;;;11.31;100.00
29815;BME280;16708;50.426;7.664;2023-04-30T07:07:10;992.97;;;11.55;100.00
29815;BME280;16708;50.426;7.664;2023-04-30T07:12:04;992.84;;;11.55;100.00
29815;BME280;16708;50.426;7.664;2023-04-30T07:16:58;992.88;;;11.70;100.00
29815;BME280;16708;50.426;7.664;2023-04-30T07:21:51;992.90;;;11.84;100.00
29815;BME280;16708;50.426;7.664;2023-04-30T07:26:46;992.94;;;11.90;100.00
29815;BME280;16708;50.426;7.664;2023-04-30T07:31:40;992.78;;;12.05;100.00
29815;BME280;16708;50.426;7.664;2023-04-30T07:36:34;992.88;;;12.05;100.00
29815;BME280;16708;50.426;7.664;2023-04-30T07:41:28;992.89;;;12.25;100.00
29815;BME280;16708;50.426;7.664;2023-04-30T07:46:22;992.87;;;12.31;100.00
29815;BME280;16708;50.426;7.664;2023-04-30T07:51:16;992.81;;;12.48;100.00
29815;BME280;16708;50.426;7.664;2023-04-30T07:56:10;992.87;;;12.83;100.00
29815;BME280;16708;50.426;7.664;2023-04-30T08:01:05;992.93;;;13.03;100.00
29815;BME280;16708;50.426;7.664;2023-04-30T08:05:59;992.98;;;13.12;100.00
29815;BME280;16708;50.426;7.664;2023-04-30T08:10:54;992.92;;;13.42;100.00
29815;BME280;16708;50.426;7.664;2023-04-30T08:15:46;992.95;;;13.69;97.00
29815;BME280;16708;50.426;7.664;2023-04-30T08:20:39;993.01;;;13.65;80.09
29815;BME280;16708;50.426;7.664;2023-04-30T08:25:34;992.98;;;13.79;83.38
29815;BME280;16708;50.426;7.664;2023-04-30T08:30:28;992.95;;;14.10;76.09
29815;BME280;16708;50.426;7.664;2023-04-30T08:35:22;992.91;;;14.19;75.46
29815;BME280;16708;50.426;7.664;2023-04-30T08:40:16;992.85;;;14.34;67.66
29815;BME280;16708;50.426;7.664;2023-04-30T08:45:10;992.97;;;14.43;66.36
29815;BME280;16708;50.426;7.664;2023-04-30T08:50:04;992.98;;;14.71;57.61
29815;BME280;16708;50.426;7.664;2023-04-30T08:54:57;992.93;;;14.93;54.68
29815;BME280;16708;50.426;7.664;2023-04-30T08:59:51;992.91;;;15.22;58.61
29815;BME280;16708;50.426;7.664;2023-04-30T09:04:45;992.95;;;15.39;52.94
29815;BME280;16708;50.426;7.664;2023-04-30T09:09:39;992.93;;;15.54;52.50
29815;BME280;16708;50.426;7.664;2023-04-30T09:14:34;992.86;;;15.82;51.23
29815;BME280;16708;50.426;7.664;2023-04-30T09:24:21;992.76;;;16.33;50.16
29815;BME280;16708;50.426;7.664;2023-04-30T09:29:15;992.77;;;16.67;50.31
29815;BME280;16708;50.426;7.664;2023-04-30T09:34:10;992.81;;;17.20;48.36
29815;BME280;16708;50.426;7.664;2023-04-30T09:39:04;992.83;;;19.08;41.31
29815;BME280;16708;50.426;7.664;2023-04-30T09:43:59;992.69;;;19.43;38.28
29815;BME280;16708;50.426;7.664;2023-04-30T09:48:55;992.64;;;20.71;36.73
29815;BME280;16708;50.426;7.664;2023-04-30T09:53:51;992.68;;;21.97;37.65
29815;BME280;16708;50.426;7.664;2023-04-30T09:58:48;992.67;;;22.32;32.58
29815;BME280;16708;50.426;7.664;2023-04-30T10:03:43;992.51;;;21.87;33.21
29815;BME280;16708;50.426;7.664;2023-04-30T10:08:38;992.54;;;23.15;31.45
29815;BME280;16708;50.426;7.664;2023-04-30T10:13:33;992.46;;;24.14;30.73
29815;BME280;16708;50.426;7.664;2023-04-30T10:18:29;992.51;;;23.00;31.05
29815;BME280;16708;50.426;7.664;2023-04-30T10:23:24;992.37;;;23.25;31.74
29815;BME280;16708;50.426;7.664;2023-04-30T10:28:18;992.38;;;24.79;30.16
29815;BME280;16708;50.426;7.664;2023-04-30T10:33:13;992.38;;;23.31;31.02
29815;BME280;16708;50.426;7.664;2023-04-30T10:38:07;992.26;;;23.71;30.93
29815;BME280;16708;50.426;7.664;2023-04-30T10:43:01;992.22;;;23.70;28.95
29815;BME280;16708;50.426;7.664;2023-04-30T10:47:56;992.21;;;23.95;29.99
29815;BME280;16708;50.426;7.664;2023-04-30T10:52:49;992.07;;;23.51;31.05
29815;BME280;16708;50.426;7.664;2023-04-30T11:07:33;992.02;;;24.44;27.83
29815;BME280;16708;50.426;7.664;2023-04-30T11:12:28;991.94;;;24.70;27.59
29815;BME280;16708;50.426;7.664;2023-04-30T11:17:23;991.87;;;26.00;26.41
29815;BME280;16708;50.426;7.664;2023-04-30T11:22:18;991.88;;;24.81;26.21
29815;BME280;16708;50.426;7.664;2023-04-30T11:27:12;991.88;;;25.46;27.32
29815;BME280;16708;50.426;7.664;2023-04-30T11:32:06;991.80;;;25.15;27.32
29815;BME280;16708;50.426;7.664;2023-04-30T11:37:01;991.81;;;24.90;27.31
29815;BME280;16708;50.426;7.664;2023-04-30T11:41:55;991.79;;;24.86;27.79
29815;BME280;16708;50.426;7.664;2023-04-30T11:46:48;991.64;;;25.09;26.83
29815;BME280;16708;50.426;7.664;2023-04-30T11:51:42;991.66;;;26.90;25.27
29815;BME280;16708;50.426;7.664;2023-04-30T12:01:29;991.69;;;27.84;23.56
29815;BME280;16708;50.426;7.664;2023-04-30T12:06:24;991.59;;;23.04;29.85
29815;BME280;16708;50.426;7.664;2023-04-30T12:16:10;991.58;;;25.90;27.91
29815;BME280;16708;50.426;7.664;2023-04-30T12:21:05;991.43;;;26.02;26.50
29815;BME280;16708;50.426;7.664;2023-04-30T12:26:00;991.46;;;26.48;26.28
29815;BME280;16708;50.426;7.664;2023-04-30T12:30:54;991.47;;;25.80;26.76
29815;BME280;16708;50.426;7.664;2023-04-30T12:35:48;991.41;;;26.42;25.05
29815;BME280;16708;50.426;7.664;2023-04-30T12:40:42;991.36;;;26.65;26.28
29815;BME280;16708;50.426;7.664;2023-04-30T12:45:37;991.36;;;26.97;24.54
29815;BME280;16708;50.426;7.664;2023-04-30T12:55:25;991.22;;;26.23;25.96
29815;BME280;16708;50.426;7.664;2023-04-30T13:00:19;991.29;;;23.90;28.89
29815;BME280;16708;50.426;7.664;2023-04-30T13:05:13;991.24;;;26.78;26.13
29815;BME280;16708;50.426;7.664;2023-04-30T13:10:08;991.07;;;25.87;26.09
29815;BME280;16708;50.426;7.664;2023-04-30T13:15:03;991.00;;;27.63;24.51
29815;BME280;16708;50.426;7.664;2023-04-30T13:19:58;991.09;;;28.45;23.09
29815;BME280;16708;50.426;7.664;2023-04-30T13:24:53;990.90;;;26.67;25.45
29815;BME280;16708;50.426;7.664;2023-04-30T13:29:48;990.92;;;27.12;23.41
29815;BME280;16708;50.426;7.664;2023-04-30T13:34:42;990.90;;;26.39;24.61
29815;BME280;16708;50.426;7.664;2023-04-30T13:39:38;990.92;;;26.63;24.01
29815;BME280;16708;50.426;7.664;2023-04-30T13:44:31;990.84;;;27.09;22.75
29815;BME280;16708;50.426;7.664;2023-04-30T13:49:25;990.85;;;26.31;22.89
29815;BME280;16708;50.426;7.664;2023-04-30T13:54:20;990.68;;;26.22;23.69
29815;BME280;16708;50.426;7.664;2023-04-30T13:59:14;990.78;;;29.77;21.23
29815;BME280;16708;50.426;7.664;2023-04-30T14:04:09;990.68;;;28.75;21.23
29815;BME280;16708;50.426;7.664;2023-04-30T14:09:04;990.69;;;27.59;20.56
29815;BME280;16708;50.426;7.664;2023-04-30T14:13:58;990.58;;;26.98;22.08
29815;BME280;16708;50.426;7.664;2023-04-30T14:18:52;990.57;;;26.86;23.61
29815;BME280;16708;50.426;7.664;2023-04-30T14:23:47;990.51;;;28.05;22.16
29815;BME280;16708;50.426;7.664;2023-04-30T14:28:41;990.48;;;28.74;21.01
29815;BME280;16708;50.426;7.664;2023-04-30T14:33:36;990.38;;;28.75;21.01
29815;BME280;16708;50.426;7.664;2023-04-30T14:38:31;990.39;;;28.74;20.92
29815;BME280;16708;50.426;7.664;2023-04-30T14:43:26;990.45;;;29.52;19.88
29815;BME280;16708;50.426;7.664;2023-04-30T14:48:20;990.25;;;27.65;22.37
29815;BME280;16708;50.426;7.664;2023-04-30T14:53:15;990.23;;;26.11;24.66
29815;BME280;16708;50.426;7.664;2023-04-30T14:58:08;990.21;;;23.03;29.07
29815;BME280;16708;50.426;7.664;2023-04-30T15:03:00;990.16;;;26.40;24.47
29815;BME280;16708;50.426;7.664;2023-04-30T15:07:54;990.03;;;27.32;23.51
29815;BME280;16708;50.426;7.664;2023-04-30T15:12:49;990.05;;;27.36;22.83
29815;BME280;16708;50.426;7.664;2023-04-30T15:17:44;990.03;;;26.85;23.93
29815;BME280;16708;50.426;7.664;2023-04-30T15:22:38;990.01;;;27.12;23.58
29815;BME280;16708;50.426;7.664;2023-04-30T15:27:32;989.94;;;26.88;23.61
29815;BME280;16708;50.426;7.664;2023-04-30T15:32:26;989.90;;;26.66;24.53
29815;BME280;16708;50.426;7.664;2023-04-30T15:37:20;989.90;;;26.04;24.46
29815;BME280;16708;50.426;7.664;2023-04-30T15:42:14;989.89;;;26.72;25.66
29815;BME280;16708;50.426;7.664;2023-04-30T15:47:07;989.70;;;26.52;24.90
29815;BME280;16708;50.426;7.664;2023-04-30T15:52:00;989.80;;;25.93;25.70
29815;BME280;16708;50.426;7.664;2023-04-30T15:56:54;989.78;;;28.00;22.38
29815;BME280;16708;50.426;7.664;2023-04-30T16:01:49;989.75;;;25.20;26.88
29815;BME280;16708;50.426;7.664;2023-04-30T16:06:44;989.71;;;27.17;23.88
29815;BME280;16708;50.426;7.664;2023-04-30T16:11:37;989.73;;;29.29;21.75
29815;BME280;16708;50.426;7.664;2023-04-30T16:16:32;989.66;;;26.51;24.53
29815;BME280;16708;50.426;7.664;2023-04-30T16:21:26;989.64;;;26.78;24.11
29815;BME280;16708;50.426;7.664;2023-04-30T16:26:20;989.65;;;26.40;24.13
29815;BME280;16708;50.426;7.664;2023-04-30T16:31:14;989.50;;;23.26;28.35
29815;BME280;16708;50.426;7.664;2023-04-30T16:36:07;989.50;;;26.42;25.01
29815;BME280;16708;50.426;7.664;2023-04-30T16:41:02;989.39;;;27.60;24.42
29815;BME280;16708;50.426;7.664;2023-04-30T16:45:56;989.36;;;27.54;22.81
29815;BME280;16708;50.426;7.664;2023-04-30T16:50:50;989.30;;;26.98;23.60
29815;BME280;16708;50.426;7.664;2023-04-30T16:55:45;989.26;;;26.93;24.08
29815;BME280;16708;50.426;7.664;2023-04-30T17:00:40;989.19;;;24.54;27.43
29815;BME280;16708;50.426;7.664;2023-04-30T17:05:34;989.26;;;25.29;26.28
29815;BME280;16708;50.426;7.664;2023-04-30T17:10:28;989.28;;;25.79;25.74
29815;BME280;16708;50.426;7.664;2023-04-30T17:15:22;989.17;;;25.20;25.91
29815;BME280;16708;50.426;7.664;2023-04-30T17:20:15;989.13;;;24.68;27.50
29815;BME280;16708;50.426;7.664;2023-04-30T17:25:09;989.15;;;23.12;28.61
29815;BME280;16708;50.426;7.664;2023-04-30T17:30:03;989.08;;;23.61;29.27
29815;BME280;16708;50.426;7.664;2023-04-30T17:34:57;989.05;;;23.56;28.16
29815;BME280;16708;50.426;7.664;2023-04-30T17:39:51;989.04;;;23.11;28.97
29815;BME280;16708;50.426;7.664;2023-04-30T17:44:46;988.98;;;22.96;29.56
29815;BME280;16708;50.426;7.664;2023-04-30T17:49:40;988.99;;;21.15;31.99
29815;BME280;16708;50.426;7.664;2023-04-30T17:54:34;988.85;;;22.93;30.21
29815;BME280;16708;50.426;7.664;2023-04-30T17:59:28;988.95;;;23.02;30.60
29815;BME280;16708;50.426;7.664;2023-04-30T18:04:23;988.91;;;20.48;34.34
29815;BME280;16708;50.426;7.664;2023-04-30T18:09:16;988.81;;;19.08;36.19
29815;BME280;16708;50.426;7.664;2023-04-30T18:14:10;988.79;;;18.11;38.11
29815;BME280;16708;50.426;7.664;2023-04-30T18:19:03;988.81;;;17.60;40.07
29815;BME280;16708;50.426;7.664;2023-04-30T18:23:57;988.83;;;17.19;40.64
29815;BME280;16708;50.426;7.664;2023-04-30T18:28:50;988.80;;;17.03;41.78
29815;BME280;16708;50.426;7.664;2023-04-30T18:33:45;988.79;;;16.62;43.33
29815;BME280;16708;50.426;7.664;2023-04-30T18:38:38;988.80;;;16.60;44.69
29815;BME280;16708;50.426;7.664;2023-04-30T18:43:33;988.80;;;16.32;46.22
29815;BME280;16708;50.426;7.664;2023-04-30T18:48:27;988.82;;;16.18;47.98
29815;BME280;16708;50.426;7.664;2023-04-30T18:53:21;988.90;;;15.99;49.19
29815;BME280;16708;50.426;7.664;2023-04-30T18:58:16;988.90;;;15.86;50.88
29815;BME280;16708;50.426;7.664;2023-04-30T19:03:10;988.97;;;15.55;52.70
29815;BME280;16708;50.426;7.664;2023-04-30T19:08:05;988.90;;;15.39;56.18
29815;BME280;16708;50.426;7.664;2023-04-30T19:12:59;989.01;;;15.20;58.36
29815;BME280;16708;50.426;7.664;2023-04-30T19:17:53;989.02;;;14.96;60.17
29815;BME280;16708;50.426;7.664;2023-04-30T19:22:48;989.09;;;14.88;62.62
29815;BME280;16708;50.426;7.664;2023-04-30T19:27:42;988.98;;;14.64;67.71
29815;BME280;16708;50.426;7.664;2023-04-30T19:32:36;989.06;;;14.42;71.61
29815;BME280;16708;50.426;7.664;2023-04-30T19:37:31;989.17;;;14.14;73.90
29815;BME280;16708;50.426;7.664;2023-04-30T19:42:25;989.10;;;13.90;79.13
29815;BME280;16708;50.426;7.664;2023-04-30T19:47:19;989.18;;;13.90;81.47
29815;BME280;16708;50.426;7.664;2023-04-30T19:52:14;989.19;;;13.83;83.74
29815;BME280;16708;50.426;7.664;2023-04-30T19:57:08;989.16;;;13.80;81.53
29815;BME280;16708;50.426;7.664;2023-04-30T20:02:02;989.15;;;13.77;86.64
29815;BME280;16708;50.426;7.664;2023-04-30T20:06:56;989.08;;;13.62;85.52
29815;BME280;16708;50.426;7.664;2023-04-30T20:11:49;989.16;;;13.58;86.29
29815;BME280;16708;50.426;7.664;2023-04-30T20:16:43;989.09;;;13.44;89.91
29815;BME280;16708;50.426;7.664;2023-04-30T20:21:37;989.08;;;13.38;93.42
29815;BME280;16708;50.426;7.664;2023-04-30T20:26:29;989.21;;;13.29;92.94
29815;BME280;16708;50.426;7.664;2023-04-30T20:31:24;989.02;;;13.21;92.29
29815;BME280;16708;50.426;7.664;2023-04-30T20:36:18;989.08;;;13.33;90.34
29815;BME280;16708;50.426;7.664;2023-04-30T20:41:13;989.00;;;13.41;90.04
29815;BME280;16708;50.426;7.664;2023-04-30T20:46:07;988.93;;;13.53;84.89
29815;BME280;16708;50.426;7.664;2023-04-30T20:51:01;988.94;;;13.57;82.91
29815;BME280;16708;50.426;7.664;2023-04-30T20:55:55;988.92;;;13.65;79.56
29815;BME280;16708;50.426;7.664;2023-04-30T21:00:49;989.00;;;13.71;79.62
29815;BME280;16708;50.426;7.664;2023-04-30T21:05:44;988.92;;;13.94;76.64
29815;BME280;16708;50.426;7.664;2023-04-30T21:10:36;988.96;;;13.72;75.84
29815;BME280;16708;50.426;7.664;2023-04-30T21:15:30;988.95;;;13.61;79.18
29815;BME280;16708;50.426;7.664;2023-04-30T21:20:25;988.98;;;13.56;78.14
29815;BME280;16708;50.426;7.664;2023-04-30T21:25:19;988.82;;;13.49;77.68
29815;BME280;16708;50.426;7.664;2023-04-30T21:30:14;988.77;;;13.46;77.66
29815;BME280;16708;50.426;7.664;2023-04-30T21:35:07;988.82;;;13.40;77.65
29815;BME280;16708;50.426;7.664;2023-04-30T21:40:01;988.79;;;13.33;78.72
29815;BME280;16708;50.426;7.664;2023-04-30T21:44:55;988.76;;;13.24;78.78
29815;BME280;16708;50.426;7.664;2023-04-30T21:49:50;988.66;;;13.17;80.62
29815;BME280;16708;50.426;7.664;2023-04-30T21:54:44;988.71;;;13.12;80.09
29815;BME280;16708;50.426;7.664;2023-04-30T21:59:38;988.69;;;13.10;80.72
29815;BME280;16708;50.426;7.664;2023-04-30T22:04:33;988.64;;;13.02;82.30
29815;BME280;16708;50.426;7.664;2023-04-30T22:09:27;988.62;;;12.91;82.08
29815;BME280;16708;50.426;7.664;2023-04-30T22:14:22;988.63;;;12.85;82.87
29815;BME280;16708;50.426;7.664;2023-04-30T22:19:16;988.64;;;12.84;82.50
29815;BME280;16708;50.426;7.664;2023-04-30T22:24:11;988.60;;;12.82;83.24
29815;BME280;16708;50.426;7.664;2023-04-30T22:29:03;988.46;;;12.72;84.06
29815;BME280;16708;50.426;7.664;2023-04-30T22:33:57;988.55;;;12.69;83.88
29815;BME280;16708;50.426;7.664;2023-04-30T22:38:50;988.47;;;12.64;84.60
29815;BME280;16708;50.426;7.664;2023-04-30T22:43:43;988.45;;;12.57;85.02
29815;BME280;16708;50.426;7.664;2023-04-30T22:48:38;988.38;;;12.53;86.01
29815;BME280;16708;50.426;7.664;2023-04-30T22:53:32;988.37;;;12.50;86.00
29815;BME280;16708;50.426;7.664;2023-04-30T22:58:25;988.38;;;12.48;86.59
29815;BME280;16708;50.426;7.664;2023-04-30T23:03:20;988.39;;;12.38;89.40
29815;BME280;16708;50.426;7.664;2023-04-30T23:08:14;988.43;;;12.32;90.07
29815;BME280;16708;50.426;7.664;2023-04-30T23:13:08;988.36;;;12.20;92.07
29815;BME280;16708;50.426;7.664;2023-04-30T23:18:03;988.28;;;12.13;93.73
29815;BME280;16708;50.426;7.664;2023-04-30T23:22:57;988.31;;;12.13;93.37
29815;BME280;16708;50.426;7.664;2023-04-30T23:27:51;988.34;;;12.07;95.38
29815;BME280;16708;50.426;7.664;2023-04-30T23:32:45;988.34;;;12.04;94.55
29815;BME280;16708;50.426;7.664;2023-04-30T23:37:39;988.32;;;12.05;94.51
29815;BME280;16708;50.426;7.664;2023-04-30T23:42:33;988.22;;;12.01;95.21
29815;BME280;16708;50.426;7.664;2023-04-30T23:47:27;988.28;;;12.02;95.33
29815;BME280;16708;50.426;7.664;2023-04-30T23:52:21;988.21;;;11.95;96.98
29815;BME280;16708;50.426;7.664;2023-04-30T23:57:14;988.19;;;11.97;95.39
